createdAt,value
2022-08-05T00:00:52.452Z,9.50
2022-08-05T00:03:55.049Z,8.65
2022-08-05T00:07:00.017Z,11.48
2022-08-05T00:10:02.663Z,10.32
2022-08-05T00:13:05.282Z,9.03
2022-08-05T00:16:10.940Z,8.68
2022-08-05T00:19:15.129Z,9.07
2022-08-05T00:22:17.865Z,8.60
2022-08-05T00:25:20.799Z,7.47
2022-08-05T00:28:29.595Z,9.47
2022-08-05T00:31:53.719Z,9.30
2022-08-05T00:35:06.018Z,8.07
2022-08-05T00:38:09.999Z,7.55
2022-08-05T00:41:12.587Z,9.43
2022-08-05T00:44:17.532Z,7.07
2022-08-05T00:47:20.005Z,8.45
2022-08-05T00:50:25.521Z,8.27
2022-08-05T00:53:45.338Z,7.60
2022-08-05T00:56:51.702Z,7.65
2022-08-05T00:59:54.533Z,7.13
2022-08-05T01:02:58.029Z,6.45
2022-08-05T01:06:05.378Z,6.68
2022-08-05T01:09:08.478Z,7.57
2022-08-05T01:12:18.047Z,6.32
2022-08-05T01:15:36.166Z,7.47
2022-08-05T01:18:48.044Z,7.05
2022-08-05T01:22:24.298Z,7.10
2022-08-05T01:26:08.119Z,7.28
2022-08-05T01:29:41.085Z,7.05
2022-08-05T01:32:47.679Z,6.93
2022-08-05T01:35:53.286Z,7.22
2022-08-05T01:39:00.985Z,6.18
2022-08-05T01:42:11.045Z,6.90
2022-08-05T01:45:17.096Z,7.20
2022-08-05T01:48:20.982Z,5.93
2022-08-05T01:51:24.341Z,6.70
2022-08-05T01:54:45.881Z,5.85
2022-08-05T01:58:29.945Z,6.30
2022-08-05T02:01:14.841Z,6.80
2022-08-05T02:04:28.405Z,6.10
2022-08-05T02:07:35.032Z,6.35
2022-08-05T02:10:44.728Z,7.68
2022-08-05T02:13:58.950Z,6.65
2022-08-05T02:17:29.686Z,7.00
2022-08-05T02:20:44.279Z,6.00
2022-08-05T02:23:53.694Z,6.13
2022-08-05T02:27:00.370Z,6.63
2022-08-05T02:30:13.948Z,7.03
2022-08-05T02:33:24.552Z,6.70
2022-08-05T02:36:50.665Z,5.70
2022-08-05T02:39:54.002Z,7.43
2022-08-05T02:42:57.367Z,6.82
2022-08-05T02:46:01.372Z,7.25
2022-08-05T02:49:06.535Z,6.68
2022-08-05T02:52:29.415Z,7.37
2022-08-05T02:55:54.093Z,5.80
2022-08-05T02:58:59.528Z,7.05
2022-08-05T03:02:04.519Z,5.97
2022-08-05T03:05:10.200Z,6.15
2022-08-05T03:08:13.853Z,6.27
2022-08-05T03:11:54.309Z,5.43
2022-08-05T03:14:48.182Z,5.78
2022-08-05T03:17:56.164Z,6.03
2022-08-05T03:21:00.559Z,5.70
2022-08-05T03:24:04.002Z,5.57
2022-08-05T03:27:06.922Z,5.60
2022-08-05T03:30:11.376Z,5.90
2022-08-05T03:33:13.973Z,8.40
2022-08-05T03:36:17.600Z,4.90
2022-08-05T03:39:38.127Z,5.97
2022-08-05T03:42:52.568Z,5.80
2022-08-05T03:45:57.547Z,6.93
2022-08-05T03:49:02.274Z,6.22
2022-08-05T03:52:48.603Z,7.05
2022-08-05T03:56:05.580Z,6.03
2022-08-05T03:59:06.396Z,6.38
2022-08-05T04:02:14.857Z,5.82
2022-08-05T04:05:20.767Z,5.93
2022-08-05T04:08:34.996Z,6.38
2022-08-05T04:11:47.261Z,7.70
2022-08-05T04:14:50.746Z,6.85
2022-08-05T04:17:56.308Z,6.63
2022-08-05T04:21:00.144Z,7.75
2022-08-05T04:24:06.633Z,6.60
2022-08-05T04:27:13.202Z,7.00
2022-08-05T04:30:15.993Z,8.55
2022-08-05T04:33:36.400Z,8.23
2022-08-05T04:36:49.664Z,7.15
2022-08-05T04:39:55.704Z,8.68
2022-08-05T04:42:58.259Z,7.90
2022-08-05T04:46:01.011Z,7.35
2022-08-05T04:49:03.725Z,8.18
2022-08-05T04:52:07.652Z,6.93
2022-08-05T04:55:14.279Z,11.68
2022-08-05T04:58:21.634Z,7.60
2022-08-05T05:02:06.685Z,8.57
2022-08-05T05:04:49.909Z,8.50
2022-08-05T05:08:01.964Z,7.93
2022-08-05T05:11:05.798Z,6.15
2022-08-05T05:14:08.701Z,7.50
2022-08-05T05:17:23.466Z,7.53
2022-08-05T05:20:28.657Z,7.10
2022-08-05T05:24:01.840Z,7.43
2022-08-05T05:26:54.662Z,6.78
2022-08-05T05:30:04.100Z,7.70
2022-08-05T05:33:16.108Z,6.38
2022-08-05T05:36:20.092Z,6.75
2022-08-05T05:39:26.000Z,6.47
2022-08-05T05:42:37.080Z,6.97
2022-08-05T05:45:39.915Z,5.40
2022-08-05T05:48:50.861Z,9.45
2022-08-05T05:51:56.821Z,4.90
2022-08-05T05:55:00.885Z,7.05
2022-08-05T05:58:04.781Z,6.07
2022-08-05T06:01:12.936Z,6.87
2022-08-05T06:04:17.770Z,5.57
2022-08-05T06:07:41.515Z,8.55
2022-08-05T06:10:52.655Z,8.75
2022-08-05T06:13:55.620Z,8.80
2022-08-05T06:16:58.520Z,9.87
2022-08-05T06:20:01.489Z,7.53
2022-08-05T06:23:04.263Z,9.32
2022-08-05T06:26:21.026Z,9.27
2022-08-05T06:29:49.317Z,10.48
2022-08-05T06:32:46.974Z,8.97
2022-08-05T06:36:08.187Z,8.30
2022-08-05T06:39:12.078Z,11.45
2022-08-05T06:42:16.664Z,7.72
2022-08-05T06:46:02.983Z,8.40
2022-08-05T06:48:55.379Z,10.73
2022-08-05T06:52:01.743Z,7.55
2022-08-05T06:55:04.726Z,7.40
2022-08-05T06:58:29.213Z,7.95
2022-08-05T07:01:32.746Z,7.53
2022-08-05T07:04:35.486Z,8.63
2022-08-05T07:07:43.685Z,7.13
2022-08-05T07:10:53.279Z,6.30
2022-08-05T07:14:20.541Z,11.65
2022-08-05T07:18:02.123Z,7.57
2022-08-05T07:20:55.764Z,6.97
2022-08-05T07:23:58.445Z,8.18
2022-08-05T07:27:04.803Z,6.57
2022-08-05T07:30:25.452Z,6.20
2022-08-05T07:33:36.464Z,5.05
2022-08-05T07:36:40.155Z,6.20
2022-08-05T07:40:25.994Z,5.68
2022-08-05T07:43:14.594Z,7.13
2022-08-05T07:46:26.154Z,5.20
2022-08-05T07:49:28.811Z,7.47
2022-08-05T07:52:31.500Z,6.10
2022-08-05T07:56:05.159Z,5.28
2022-08-05T07:58:58.746Z,7.20
2022-08-05T08:02:03.230Z,6.10
2022-08-05T08:05:06.429Z,6.07
2022-08-05T08:08:12.443Z,6.70
2022-08-05T08:11:15.875Z,7.97
2022-08-05T08:14:19.068Z,7.13
2022-08-05T08:17:21.988Z,8.00
2022-08-05T08:20:59.981Z,7.20
2022-08-05T08:24:03.164Z,7.23
2022-08-05T08:27:07.453Z,7.35
2022-08-05T08:30:19.057Z,5.82
2022-08-05T08:33:35.987Z,7.10
2022-08-05T08:36:50.181Z,8.30
2022-08-05T08:39:55.173Z,8.20
2022-08-05T08:42:58.537Z,6.28
2022-08-05T08:46:21.772Z,7.75
2022-08-05T08:50:12.880Z,6.43
2022-08-05T08:52:53.349Z,5.95
2022-08-05T08:56:03.788Z,5.27
2022-08-05T08:59:14.945Z,6.43
2022-08-05T09:02:24.269Z,6.50
2022-08-05T09:05:38.282Z,5.93
2022-08-05T09:08:52.243Z,6.10
2022-08-05T09:12:00.206Z,6.50
2022-08-05T09:15:09.085Z,5.90
2022-08-05T09:18:13.261Z,6.30
2022-08-05T09:21:21.248Z,9.50
2022-08-05T09:24:38.774Z,10.52
2022-08-05T09:28:05.428Z,7.70
2022-08-05T09:31:23.244Z,7.20
2022-08-05T09:34:47.315Z,8.77
2022-08-05T09:38:16.403Z,7.57
2022-08-05T09:41:17.244Z,7.50
2022-08-05T09:44:36.799Z,8.77
2022-08-05T09:47:54.938Z,6.63
2022-08-05T09:51:04.460Z,7.93
2022-08-05T09:54:31.149Z,5.95
2022-08-05T09:57:47.758Z,7.32
2022-08-05T10:01:13.290Z,7.27
2022-08-05T10:04:18.448Z,6.70
2022-08-05T10:08:11.196Z,7.07
2022-08-05T10:10:54.496Z,5.72
2022-08-05T10:13:57.474Z,7.15
2022-08-05T10:17:37.397Z,6.00
2022-08-05T10:20:56.618Z,6.15
2022-08-05T10:24:00.979Z,6.78
2022-08-05T10:27:04.665Z,5.28
2022-08-05T10:31:19.891Z,6.53
2022-08-05T10:33:35.325Z,6.83
2022-08-05T10:36:41.031Z,7.10
2022-08-05T10:40:03.401Z,6.07
2022-08-05T10:43:18.208Z,5.63
2022-08-05T10:46:51.124Z,9.70
2022-08-05T10:50:33.009Z,6.27
2022-08-05T10:53:42.614Z,6.38
2022-08-05T10:56:52.776Z,6.22
2022-08-05T11:00:17.871Z,5.80
2022-08-05T11:03:25.599Z,6.93
2022-08-05T11:06:30.877Z,7.13
2022-08-05T11:10:09.663Z,7.47
2022-08-05T11:13:39.878Z,6.90
2022-08-05T11:17:56.870Z,6.57
2022-08-05T11:20:57.231Z,5.97
2022-08-05T11:24:14.642Z,6.40
2022-08-05T11:27:50.899Z,6.40
2022-08-05T11:31:06.077Z,5.75
2022-08-05T11:34:09.354Z,5.95
2022-08-05T11:38:29.748Z,4.80
2022-08-05T11:41:54.792Z,6.43
2022-08-05T11:44:54.153Z,6.25
2022-08-05T11:47:57.813Z,5.70
2022-08-05T11:51:02.117Z,5.97
2022-08-05T11:54:05.178Z,6.07
2022-08-05T11:57:25.169Z,6.17
2022-08-05T12:00:30.629Z,5.80
2022-08-05T12:03:43.811Z,6.28
2022-08-05T12:07:00.627Z,6.90
2022-08-05T12:10:09.215Z,6.63
2022-08-05T12:13:15.933Z,6.10
2022-08-05T12:16:25.593Z,5.60
2022-08-05T12:20:17.647Z,5.07
2022-08-05T12:22:52.390Z,5.93
2022-08-05T12:25:56.433Z,6.68
2022-08-05T12:28:59.596Z,7.63
2022-08-05T12:32:05.820Z,6.38
2022-08-05T12:35:21.491Z,5.88
2022-08-05T12:38:30.196Z,5.93
2022-08-05T12:41:36.129Z,5.93
2022-08-05T12:44:47.646Z,6.30
2022-08-05T12:48:01.345Z,6.55
2022-08-05T12:52:10.239Z,6.38
2022-08-05T12:54:41.973Z,5.55
2022-08-05T12:58:39.150Z,5.38
2022-08-05T13:02:03.022Z,6.47
2022-08-05T13:04:32.738Z,6.28
2022-08-05T13:07:59.734Z,5.70
2022-08-05T13:11:02.299Z,5.28
2022-08-05T13:14:35.825Z,6.13
2022-08-05T13:17:41.413Z,6.53
2022-08-05T13:20:44.905Z,6.18
2022-08-05T13:23:50.823Z,6.40
2022-08-05T13:26:54.779Z,5.72
2022-08-05T13:29:59.607Z,4.97
2022-08-05T13:34:21.464Z,5.13
2022-08-05T13:36:44.255Z,7.10
2022-08-05T13:40:16.173Z,6.15
2022-08-05T13:43:12.063Z,4.75
2022-08-05T13:46:16.311Z,5.95
2022-08-05T13:49:19.042Z,6.03
2022-08-05T13:52:29.331Z,5.40
2022-08-05T13:55:41.820Z,5.70
2022-08-05T13:58:53.476Z,5.97
2022-08-05T14:02:00.141Z,5.85
2022-08-05T14:05:15.105Z,5.67
2022-08-05T14:08:27.975Z,6.15
2022-08-05T14:12:04.126Z,5.40
2022-08-05T14:15:05.859Z,5.47
2022-08-05T14:18:25.283Z,6.03
2022-08-05T14:22:09.659Z,6.07
2022-08-05T14:24:50.696Z,5.60
2022-08-05T14:27:53.672Z,5.95
2022-08-05T14:30:57.411Z,5.50
2022-08-05T14:34:00.874Z,6.00
2022-08-05T14:37:05.160Z,5.37
2022-08-05T14:40:09.095Z,4.90
2022-08-05T14:43:11.723Z,5.95
2022-08-05T14:46:17.511Z,6.10
2022-08-05T14:49:22.671Z,5.53
2022-08-05T14:52:50.506Z,5.67
2022-08-05T14:55:52.309Z,4.70
2022-08-05T14:58:55.845Z,6.22
2022-08-05T15:01:58.676Z,4.70
2022-08-05T15:05:02.554Z,4.93
2022-08-05T15:08:58.121Z,5.50
2022-08-05T15:11:52.527Z,5.85
2022-08-05T15:14:56.114Z,5.80
2022-08-05T15:17:58.747Z,6.22
2022-08-05T15:21:07.726Z,6.38
2022-08-05T15:24:10.611Z,5.97
2022-08-05T15:27:13.462Z,6.88
2022-08-05T15:30:16.938Z,5.72
2022-08-05T15:34:18.907Z,4.85
2022-08-05T15:36:42.281Z,5.40
2022-08-05T15:40:58.697Z,5.80
2022-08-05T15:43:12.581Z,5.72
2022-08-05T15:46:20.573Z,5.80
2022-08-05T15:49:52.001Z,5.35
2022-08-05T15:52:52.641Z,4.97
2022-08-05T15:56:01.456Z,5.90
2022-08-05T15:59:06.942Z,5.25
2022-08-05T16:02:14.361Z,5.30
2022-08-05T16:05:17.790Z,5.53
2022-08-05T16:08:23.152Z,5.32
2022-08-05T16:11:42.307Z,5.00
2022-08-05T16:14:45.970Z,5.90
2022-08-05T16:17:57.356Z,5.60
2022-08-05T16:21:04.220Z,6.30
2022-08-05T16:24:13.017Z,5.97
2022-08-05T16:27:47.147Z,4.43
2022-08-05T16:30:53.158Z,5.20
2022-08-05T16:33:56.683Z,6.13
2022-08-05T16:36:59.208Z,5.35
2022-08-05T16:40:04.252Z,4.65
2022-08-05T16:43:09.491Z,4.97
2022-08-05T16:46:24.324Z,5.13
2022-08-05T16:49:27.465Z,5.22
2022-08-05T16:52:32.699Z,5.38
2022-08-05T16:55:46.420Z,4.90
2022-08-05T16:58:50.756Z,5.60
2022-08-05T17:01:55.878Z,5.55
2022-08-05T17:04:58.912Z,5.05
2022-08-05T17:08:01.444Z,5.32
2022-08-05T17:11:04.251Z,5.13
2022-08-05T17:14:13.006Z,6.03
2022-08-05T17:17:42.646Z,6.13
2022-08-05T17:20:45.580Z,5.70
2022-08-05T17:24:04.503Z,8.50
2022-08-05T17:27:09.743Z,5.43
2022-08-05T17:30:19.083Z,5.90
2022-08-05T17:33:38.983Z,5.43
2022-08-05T17:36:50.764Z,5.90
2022-08-05T17:39:53.267Z,5.63
2022-08-05T17:42:58.772Z,6.53
2022-08-05T17:46:01.367Z,6.40
2022-08-05T17:49:05.155Z,5.05
2022-08-05T17:52:09.413Z,6.20
2022-08-05T17:55:14.342Z,5.93
2022-08-05T17:58:21.643Z,5.75
2022-08-05T18:01:47.213Z,5.00
2022-08-05T18:04:55.049Z,5.22
2022-08-05T18:07:57.839Z,5.32
2022-08-05T18:11:00.430Z,6.13
2022-08-05T18:14:13.379Z,5.35
2022-08-05T18:18:00.987Z,5.73
2022-08-05T18:20:46.934Z,5.95
2022-08-05T18:23:53.436Z,5.68
2022-08-05T18:26:56.689Z,5.68
2022-08-05T18:30:00.953Z,4.97
2022-08-05T18:33:03.765Z,5.57
2022-08-05T18:36:11.878Z,5.43
2022-08-05T18:39:42.280Z,5.32
2022-08-05T18:42:41.332Z,5.63
2022-08-05T18:45:44.691Z,6.35
2022-08-05T18:48:51.932Z,5.57
2022-08-05T18:52:14.094Z,5.18
2022-08-05T18:55:17.372Z,5.63
2022-08-05T18:58:27.360Z,5.32
2022-08-05T19:01:33.445Z,5.13
2022-08-05T19:05:01.198Z,5.87
2022-08-05T19:08:12.292Z,6.47
2022-08-05T19:11:27.995Z,5.35
2022-08-05T19:14:44.910Z,5.30
2022-08-05T19:18:08.704Z,5.60
2022-08-05T19:21:12.590Z,5.77
2022-08-05T19:24:15.067Z,5.47
2022-08-05T19:27:17.848Z,5.03
2022-08-05T19:30:22.464Z,5.15
2022-08-05T19:33:34.051Z,5.75
2022-08-05T19:36:39.706Z,5.00
2022-08-05T19:39:50.947Z,5.60
2022-08-05T19:43:00.797Z,5.28
2022-08-05T19:46:29.035Z,5.50
2022-08-05T19:49:30.628Z,5.45
2022-08-05T19:52:33.361Z,5.10
2022-08-05T19:56:14.630Z,5.28
2022-08-05T19:58:59.039Z,5.05
2022-08-05T20:02:21.930Z,4.97
2022-08-05T20:05:49.765Z,5.68
2022-08-05T20:08:52.615Z,5.23
2022-08-05T20:11:55.886Z,5.40
2022-08-05T20:14:58.759Z,5.97
2022-08-05T20:18:02.314Z,6.13
2022-08-05T20:21:07.323Z,5.30
2022-08-05T20:24:11.374Z,6.10
2022-08-05T20:27:14.100Z,5.78
2022-08-05T20:30:19.794Z,4.93
2022-08-05T20:33:22.822Z,6.43
2022-08-05T20:36:25.974Z,4.95
2022-08-05T20:39:35.624Z,6.60
2022-08-05T20:42:40.365Z,5.25
2022-08-05T20:45:56.401Z,5.35
2022-08-05T20:48:59.872Z,6.68
2022-08-05T20:52:05.473Z,6.55
2022-08-05T20:55:56.219Z,6.63
2022-08-05T20:58:32.990Z,7.45
2022-08-05T21:01:38.282Z,8.02
2022-08-05T21:04:41.680Z,7.07
2022-08-05T21:07:51.667Z,7.28
2022-08-05T21:10:58.487Z,8.57
2022-08-05T21:14:01.616Z,8.48
2022-08-05T21:17:05.261Z,8.55
2022-08-05T21:20:10.004Z,9.45
2022-08-05T21:23:13.611Z,8.57
2022-08-05T21:26:16.746Z,9.60
2022-08-05T21:29:20.253Z,11.40
2022-08-05T21:32:29.233Z,9.65
2022-08-05T21:35:43.749Z,9.20
2022-08-05T21:38:55.564Z,10.25
2022-08-05T21:42:01.199Z,9.37
2022-08-05T21:45:05.147Z,9.52
2022-08-05T21:48:13.809Z,11.60
2022-08-05T21:51:25.018Z,11.25
2022-08-05T21:54:41.424Z,10.38
2022-08-05T21:57:44.299Z,10.87
2022-08-05T22:00:51.260Z,10.82
2022-08-05T22:03:54.662Z,12.10
2022-08-05T22:06:57.155Z,10.25
2022-08-05T22:09:59.978Z,10.77
2022-08-05T22:13:08.873Z,11.13
2022-08-05T22:16:41.999Z,10.65
2022-08-05T22:20:00.390Z,9.25
2022-08-05T22:24:02.792Z,10.68
2022-08-05T22:27:06.833Z,11.50
2022-08-05T22:30:14.172Z,11.60
2022-08-05T22:33:16.806Z,9.98
2022-08-05T22:36:39.286Z,11.30
2022-08-05T22:39:43.596Z,10.55
2022-08-05T22:42:57.963Z,11.18
2022-08-05T22:46:03.443Z,10.53
2022-08-05T22:50:17.289Z,10.32
2022-08-05T22:52:36.067Z,10.85
2022-08-05T22:55:56.587Z,11.57
2022-08-05T22:59:03.114Z,11.32
2022-08-05T23:02:07.461Z,10.57
2022-08-05T23:05:10.461Z,11.70
2022-08-05T23:08:13.386Z,12.15
2022-08-05T23:11:16.775Z,11.68
2022-08-05T23:14:22.385Z,10.73
2022-08-05T23:17:34.613Z,10.13
2022-08-05T23:20:40.242Z,11.13
2022-08-05T23:23:45.802Z,10.07
2022-08-05T23:26:48.737Z,11.20
2022-08-05T23:29:51.516Z,10.77
2022-08-05T23:32:54.151Z,11.47
2022-08-05T23:35:56.847Z,12.85
2022-08-05T23:38:59.555Z,11.52
2022-08-05T23:42:02.290Z,10.68
2022-08-05T23:45:14.155Z,10.75
2022-08-05T23:48:18.167Z,10.20
2022-08-05T23:51:22.312Z,10.65
2022-08-05T23:54:34.059Z,10.27
2022-08-05T23:57:40.823Z,10.98
